Time;durP1;ratioP1;P1;durP2;ratioP2;P2;SDS_P1;SDS_P2;PMS_P1;PMS_P2;Temp;Humidity;BMP_temperature;BMP_pressure;BME280_temperature;BME280_humidity;BME280_pressure;Samples;Min_cycle;Max_cycle;Signal;HPM_P1;HPM_P2
2022/02/09 00:01:55;;;;;;;10.60;1.83;;;;;;;;;;5026766;28;20048;-40
2022/02/09 00:03:59;;;;;;;10.00;2.05;;;;;;;;;;5013913;28;20051;-42
2022/02/09 00:09:05;;;;;;;6.95;1.83;;;;;;;;;;5031091;28;20095;-40
2022/02/09 00:12:25;;;;;;;9.75;2.08;;;;;;;;;;5032913;28;20116;-40
2022/02/09 00:14:42;;;;;;;7.75;1.85;;;;;;;;;;5013332;28;20049;-41
2022/02/09 00:33:26;;;;;;;13.13;2.65;;;;;;;;;;5029884;28;20041;-40
2022/02/09 00:41:40;;;;;;;9.52;1.80;;;;;;;;;;5027790;28;20517;-41
2022/02/09 00:44:29;;;;;;;15.60;2.30;;;;;;;;;;5031213;28;20030;-42
2022/02/09 01:12:22;;;;;;;17.40;2.50;;;;;;;;;;5031226;28;20102;-40
2022/02/09 01:57:42;;;;;;;23.55;4.82;;;;;;;;;;5033449;28;20056;-42
2022/02/09 02:00:09;;;;;;;24.65;5.07;;;;;;;;;;5032382;28;20021;-41
2022/02/09 02:02:36;;;;;;;32.35;5.93;;;;;;;;;;5033212;28;20044;-44
2022/02/09 02:05:03;;;;;;;22.77;5.03;;;;;;;;;;5032985;28;20479;-41
2022/02/09 02:07:54;;;;;;;23.92;4.30;;;;;;;;;;5032769;28;20033;-41
2022/02/09 02:13:23;;;;;;;13.95;3.78;;;;;;;;;;5032142;28;20096;-41
2022/02/09 02:16:36;;;;;;;12.35;3.08;;;;;;;;;;5032285;28;20033;-40
2022/02/09 02:18:43;;;;;;;24.45;3.15;;;;;;;;;;5024803;28;20057;-42
2022/02/09 02:37:12;;;;;;;13.32;2.55;;;;;;;;;;5032368;28;20072;-38
2022/02/09 03:10:15;;;;;;;7.32;1.77;;;;;;;;;;5031536;28;20044;-38
2022/02/09 03:12:57;;;;;;;10.20;2.10;;;;;;;;;;5031550;28;20491;-38
2022/02/09 03:15:36;;;;;;;8.48;2.08;;;;;;;;;;5031309;28;20143;-38
2022/02/09 03:23:40;;;;;;;11.00;1.75;;;;;;;;;;5031662;28;20044;-38
2022/02/09 03:27:24;;;;;;;;;;;;;;;;;;5031889;28;20037;-38
2022/02/09 03:42:44;;;;;;;12.77;1.70;;;;;;;;;;5030850;28;20407;-38
2022/02/09 03:51:08;;;;;;;10.10;1.65;;;;;;;;;;5031143;28;20503;-38
2022/02/09 03:58:43;;;;;;;7.13;1.48;;;;;;;;;;5032833;28;20048;-39
2022/02/09 04:01:10;;;;;;;5.20;1.30;;;;;;;;;;5031781;28;20022;-37
2022/02/09 04:03:37;;;;;;;9.38;1.73;;;;;;;;;;5030976;28;20025;-38
2022/02/09 04:06:05;;;;;;;6.30;1.30;;;;;;;;;;5031234;28;20029;-38
2022/02/09 04:08:40;;;;;;;6.90;1.23;;;;;;;;;;5031323;28;20452;-38
2022/02/09 04:11:18;;;;;;;9.55;1.67;;;;;;;;;;5030330;28;20619;-38
2022/02/09 04:14:01;;;;;;;9.35;1.50;;;;;;;;;;5031293;28;20395;-38
2022/02/09 04:19:27;;;;;;;6.25;1.30;;;;;;;;;;5031458;28;20038;-38
2022/02/09 04:41:26;;;;;;;8.95;1.52;;;;;;;;;;5031291;28;20056;-38
2022/02/09 04:44:18;;;;;;;5.43;1.30;;;;;;;;;;5030862;28;20044;-38
2022/02/09 04:52:16;;;;;;;6.55;1.35;;;;;;;;;;5030484;28;20087;-38
2022/02/09 04:57:30;;;;;;;5.85;1.30;;;;;;;;;;5034231;28;20369;-38
2022/02/09 05:03:03;;;;;;;5.00;1.00;;;;;;;;;;5034953;28;20041;-38
2022/02/09 05:21:52;;;;;;;7.95;1.45;;;;;;;;;;5034116;28;20499;-38
2022/02/09 05:30:07;;;;;;;8.10;1.90;;;;;;;;;;5015711;28;20037;-38
2022/02/09 05:32:34;;;;;;;8.50;1.00;;;;;;;;;;5034616;28;20426;-38
2022/02/09 05:35:01;;;;;;;4.50;1.10;;;;;;;;;;5033770;28;20041;-38
2022/02/09 05:37:28;;;;;;;4.60;1.33;;;;;;;;;;5033878;28;20026;-37
2022/02/09 05:39:55;;;;;;;7.85;1.20;;;;;;;;;;5033907;28;20034;-38
2022/02/09 05:42:22;;;;;;;7.00;1.10;;;;;;;;;;5033285;28;20053;-38
2022/02/09 05:44:49;;;;;;;5.28;1.25;;;;;;;;;;5034066;28;20033;-38
2022/02/09 05:52:32;;;;;;;6.30;1.23;;;;;;;;;;5033660;28;20572;-38
2022/02/09 05:57:42;;;;;;;6.10;1.30;;;;;;;;;;5033803;28;20415;-38
2022/02/09 06:00:10;;;;;;;8.80;1.27;;;;;;;;;;5032829;28;20030;-38
2022/02/09 06:02:37;;;;;;;8.43;1.30;;;;;;;;;;5033322;28;20053;-38
2022/02/09 06:05:04;;;;;;;4.97;1.15;;;;;;;;;;5033309;28;20486;-39
2022/02/09 06:07:31;;;;;;;5.05;1.20;;;;;;;;;;5032758;28;20097;-38
2022/02/09 06:09:58;;;;;;;6.40;1.15;;;;;;;;;;5033344;28;20073;-38
2022/02/09 06:12:39;;;;;;;7.18;1.70;;;;;;;;;;5032972;28;20033;-38
2022/02/09 06:15:35;;;;;;;4.50;1.40;;;;;;;;;;5033110;28;20029;-38
2022/02/09 06:21:12;;;;;;;5.38;1.30;;;;;;;;;;4953031;29;20497;-38
2022/02/09 06:23:39;;;;;;;3.78;1.25;;;;;;;;;;4951810;29;20031;-38
2022/02/09 06:26:06;;;;;;;4.45;1.10;;;;;;;;;;4992027;28;20125;-38
2022/02/09 06:28:33;;;;;;;7.68;1.35;;;;;;;;;;5032116;28;20071;-38
2022/02/09 06:31:01;;;;;;;6.40;1.20;;;;;;;;;;5033223;28;20502;-38
2022/02/09 06:33:28;;;;;;;5.93;1.42;;;;;;;;;;5032668;28;20105;-38
2022/02/09 06:35:58;;;;;;;7.15;1.42;;;;;;;;;;5032387;28;20029;-38
2022/02/09 06:38:25;;;;;;;8.20;1.20;;;;;;;;;;5032624;28;20064;-37
2022/02/09 06:40:54;;;;;;;5.15;1.15;;;;;;;;;;5031736;28;20021;-39
2022/02/09 06:43:22;;;;;;;4.75;1.02;;;;;;;;;;5032735;28;20033;-38
2022/02/09 06:45:49;;;;;;;5.97;1.13;;;;;;;;;;5032513;28;20024;-38
2022/02/09 06:48:19;;;;;;;3.55;0.95;;;;;;;;;;5032379;28;20108;-39
2022/02/09 06:50:54;;;;;;;4.85;1.23;;;;;;;;;;5032962;28;20119;-39
2022/02/09 06:56:02;;;;;;;7.63;1.35;;;;;;;;;;5032844;28;20041;-38
2022/02/09 06:59:28;;;;;;;4.30;1.25;;;;;;;;;;5031991;28;20037;-38
2022/02/09 07:01:18;;;;;;;5.45;1.10;;;;;;;;;;5018771;28;20509;-38
2022/02/09 07:03:45;;;;;;;5.45;1.35;;;;;;;;;;5032332;28;20026;-38
2022/02/09 07:06:12;;;;;;;5.40;0.98;;;;;;;;;;5031986;28;20234;-38
2022/02/09 07:08:39;;;;;;;5.65;1.13;;;;;;;;;;5032432;28;20022;-38
2022/02/09 07:11:06;;;;;;;7.97;1.08;;;;;;;;;;5031573;28;20025;-38
2022/02/09 07:13:33;;;;;;;3.85;1.02;;;;;;;;;;5032222;28;20018;-38
2022/02/09 07:16:04;;;;;;;5.50;1.27;;;;;;;;;;5032187;28;20053;-38
2022/02/09 07:18:31;;;;;;;6.65;1.35;;;;;;;;;;5031869;28;20376;-38
2022/02/09 07:24:19;;;;;;;5.35;1.33;;;;;;;;;;5033938;28;20036;-38
2022/02/09 07:30:02;;;;;;;4.10;1.13;;;;;;;;;;5033763;28;20044;-38
2022/02/09 07:35:45;;;;;;;4.40;1.02;;;;;;;;;;5033603;28;20116;-38
2022/02/09 07:41:28;;;;;;;6.82;1.10;;;;;;;;;;5033230;28;20067;-38
2022/02/09 08:01:57;;;;;;;6.72;1.23;;;;;;;;;;5031545;28;20041;-38
2022/02/09 08:04:25;;;;;;;6.80;0.90;;;;;;;;;;5031281;28;20025;-38
2022/02/09 08:06:52;;;;;;;3.25;1.08;;;;;;;;;;5031489;28;20025;-38
2022/02/09 08:12:22;;;;;;;5.53;0.90;;;;;;;;;;5031126;28;20038;-38
2022/02/09 08:20:32;;;;;;;5.57;1.15;;;;;;;;;;5031173;28;20403;-39
2022/02/09 08:28:23;;;;;;;2.22;0.90;;;;;;;;;;5030990;28;20065;-38
2022/02/09 08:33:23;;;;;;;2.67;0.98;;;;;;;;;;5035163;28;20113;-38
2022/02/09 08:35:55;;;;;;;5.03;0.85;;;;;;;;;;5034543;28;20026;-38
2022/02/09 08:38:22;;;;;;;2.67;1.17;;;;;;;;;;5034909;28;20025;-38
2022/02/09 08:40:49;;;;;;;4.97;1.10;;;;;;;;;;5035033;28;20104;-38
2022/02/09 08:43:16;;;;;;;8.23;0.95;;;;;;;;;;5034686;28;20492;-38
2022/02/09 08:45:43;;;;;;;9.13;0.80;;;;;;;;;;5034725;28;20030;-38
2022/02/09 08:48:11;;;;;;;4.25;0.93;;;;;;;;;;5034839;28;20032;-38
2022/02/09 08:50:38;;;;;;;4.07;1.00;;;;;;;;;;5034583;28;20037;-38
2022/02/09 08:53:05;;;;;;;5.25;1.00;;;;;;;;;;5034600;28;20386;-38
2022/02/09 08:55:34;;;;;;;5.50;0.90;;;;;;;;;;5033882;28;20498;-38
2022/02/09 08:58:02;;;;;;;5.70;1.10;;;;;;;;;;5034628;28;20106;-38
2022/02/09 09:00:33;;;;;;;3.78;0.88;;;;;;;;;;5034587;28;20587;-38
2022/02/09 09:03:20;;;;;;;3.22;1.00;;;;;;;;;;5033898;28;20045;-38
2022/02/09 09:05:50;;;;;;;10.10;1.23;;;;;;;;;;5034581;28;20046;-38
2022/02/09 10:02:59;;;;;;;29.20;2.40;;;;;;;;;;5032966;28;20128;-36
2022/02/09 10:33:52;;;;;;;9.80;1.87;;;;;;;;;;5012896;28;20038;-36
2022/02/09 10:36:20;;;;;;;13.73;1.50;;;;;;;;;;5011741;28;20519;-36
2022/02/09 10:38:49;;;;;;;12.32;1.85;;;;;;;;;;5016270;28;20380;-36
2022/02/09 10:41:32;;;;;;;12.55;2.08;;;;;;;;;;5021141;28;20037;-36
2022/02/09 10:43:58;;;;;;;;;;;;;;;;;;5012921;28;20038;-42
2022/02/09 10:46:25;;;;;;;10.93;2.05;;;;;;;;;;5011921;28;19932;-41
2022/02/09 10:48:57;;;;;;;11.40;2.10;;;;;;;;;;5012975;28;20026;-41
2022/02/09 10:51:30;;;;;;;13.95;1.85;;;;;;;;;;5014232;28;20030;-40
2022/02/09 10:54:02;;;;;;;7.10;1.60;;;;;;;;;;5030021;28;20037;-41
2022/02/09 10:56:30;;;;;;;10.05;1.30;;;;;;;;;;5032182;28;20030;-41
2022/02/09 10:59:00;;;;;;;16.52;2.47;;;;;;;;;;5031694;28;20793;-41
2022/02/09 11:01:27;;;;;;;27.23;2.38;;;;;;;;;;5032586;28;20064;-41
2022/02/09 11:03:59;;;;;;;14.32;1.70;;;;;;;;;;5031857;28;20110;-40
2022/02/09 11:06:28;;;;;;;20.13;1.70;;;;;;;;;;5031895;28;20022;-39
2022/02/09 11:08:55;;;;;;;17.52;2.03;;;;;;;;;;5031857;28;20026;-40
2022/02/09 11:11:22;;;;;;;19.17;2.10;;;;;;;;;;5016289;28;20029;-40
2022/02/09 11:13:49;;;;;;;18.65;1.70;;;;;;;;;;5032654;28;20101;-40
2022/02/09 11:16:17;;;;;;;33.08;2.30;;;;;;;;;;5031627;28;20399;-40
2022/02/09 11:18:47;;;;;;;21.30;2.00;;;;;;;;;;5031443;28;20034;-40
2022/02/09 11:21:15;;;;;;;14.20;1.75;;;;;;;;;;5031682;28;20399;-40
2022/02/09 11:24:01;;;;;;;15.15;1.90;;;;;;;;;;5031413;28;20080;-40
2022/02/09 11:32:05;;;;;;;30.58;2.53;;;;;;;;;;5030450;28;20124;-40
2022/02/09 11:34:55;;;;;;;31.30;2.70;;;;;;;;;;5031863;28;20108;-39
2022/02/09 11:37:36;;;;;;;28.00;2.08;;;;;;;;;;5021952;28;20065;-40
2022/02/09 11:40:25;;;;;;;29.13;2.40;;;;;;;;;;5030301;28;20037;-40
2022/02/09 11:43:01;;;;;;;23.63;2.33;;;;;;;;;;5031032;28;20100;-40
2022/02/09 12:10:52;;;;;;;27.58;2.45;;;;;;;;;;5031204;28;20041;-40
2022/02/09 12:13:43;;;;;;;22.88;2.55;;;;;;;;;;5013638;28;20032;-39
2022/02/09 12:19:29;;;;;;;18.77;2.38;;;;;;;;;;5031286;28;20056;-40
2022/02/09 12:22:13;;;;;;;23.95;2.40;;;;;;;;;;5030229;28;20033;-40
2022/02/09 12:24:42;;;;;;;31.08;2.90;;;;;;;;;;5031180;28;20044;-40
2022/02/09 12:27:13;;;;;;;28.02;2.53;;;;;;;;;;5030587;28;20407;-40
2022/02/09 12:29:45;;;;;;;23.48;2.30;;;;;;;;;;5029375;28;20616;-40
2022/02/09 12:32:18;;;;;;;38.15;2.47;;;;;;;;;;5030268;28;20033;-39
2022/02/09 12:34:54;;;;;;;26.58;2.25;;;;;;;;;;5029523;28;20041;-40
2022/02/09 12:37:21;;;;;;;22.30;2.17;;;;;;;;;;5030887;28;20053;-39
2022/02/09 12:39:52;;;;;;;26.75;2.28;;;;;;;;;;5029802;28;20548;-40
2022/02/09 12:42:20;;;;;;;24.73;2.25;;;;;;;;;;5030430;28;20076;-40
2022/02/09 12:44:59;;;;;;;25.98;2.53;;;;;;;;;;5030773;28;20489;-39
2022/02/09 12:47:29;;;;;;;28.35;2.50;;;;;;;;;;5017284;28;20079;-40
2022/02/09 12:49:56;;;;;;;24.52;2.20;;;;;;;;;;5029249;28;20099;-38
2022/02/09 12:52:30;;;;;;;26.38;2.95;;;;;;;;;;5028476;28;20060;-39
2022/02/09 12:55:01;;;;;;;22.95;2.33;;;;;;;;;;5028768;28;20069;-36
2022/02/09 12:57:36;;;;;;;35.97;3.00;;;;;;;;;;5024319;28;20080;-45
2022/02/09 13:00:04;;;;;;;34.20;3.95;;;;;;;;;;5029123;28;20109;-49
2022/02/09 13:02:45;;;;;;;29.88;2.65;;;;;;;;;;5028480;28;20033;-39
2022/02/09 13:05:13;;;;;;;27.00;2.22;;;;;;;;;;5010079;28;20402;-39
2022/02/09 13:07:40;;;;;;;38.97;3.00;;;;;;;;;;5024853;28;20076;-37
2022/02/09 13:10:08;;;;;;;32.63;2.38;;;;;;;;;;5028313;28;20055;-39
2022/02/09 13:12:41;;;;;;;26.30;2.25;;;;;;;;;;5028319;28;20044;-39
2022/02/09 13:15:19;;;;;;;31.70;3.03;;;;;;;;;;5028622;28;20049;-37
2022/02/09 13:17:53;;;;;;;16.40;2.50;;;;;;;;;;5027656;28;20037;-38
2022/02/09 13:21:02;;;;;;;20.70;2.53;;;;;;;;;;5032207;28;20052;-36
2022/02/09 14:02:53;;;;;;;45.75;4.88;;;;;;;;;;5032709;28;20033;-47
2022/02/09 14:52:18;;;;;;;29.65;3.85;;;;;;;;;;5025371;28;20068;-37
2022/02/09 14:54:59;;;;;;;34.75;4.03;;;;;;;;;;5030807;28;20129;-39
2022/02/09 14:57:32;;;;;;;30.65;4.22;;;;;;;;;;5029573;28;20041;-39
2022/02/09 15:05:38;;;;;;;28.40;3.22;;;;;;;;;;5031245;28;20037;-46
2022/02/09 15:10:30;;;;;;;60.10;5.43;;;;;;;;;;5026624;28;20470;-44
2022/02/09 15:13:15;;;;;;;64.43;6.22;;;;;;;;;;5025690;28;20041;-41
2022/02/09 15:16:22;;;;;;;48.08;5.25;;;;;;;;;;5025773;28;20403;-39
2022/02/09 15:23:41;;;;;;;37.88;5.07;;;;;;;;;;5030236;28;20120;-43
2022/02/09 15:26:08;;;;;;;73.78;6.10;;;;;;;;;;5028568;28;20032;-41
2022/02/09 15:28:36;;;;;;;66.32;6.95;;;;;;;;;;5025052;28;20034;-40
2022/02/09 15:33:39;;;;;;;51.15;5.60;;;;;;;;;;5034048;22;20045;-38
2022/02/09 15:36:11;;;;;;;56.85;7.40;;;;;;;;;;5001052;28;20045;-40
2022/02/09 15:38:46;;;;;;;59.67;6.80;;;;;;;;;;5022593;28;20033;-40
2022/02/09 16:11:01;;;;;;;54.00;5.70;;;;;;;;;;5029087;28;20063;-40
2022/02/09 16:24:05;;;;;;;33.55;5.25;;;;;;;;;;5024283;28;20399;-41
2022/02/09 16:45:40;;;;;;;39.53;5.53;;;;;;;;;;5028868;28;20072;-40
2022/02/09 16:48:09;;;;;;;44.92;5.13;;;;;;;;;;5026314;28;20479;-40
2022/02/09 16:50:39;;;;;;;33.83;5.47;;;;;;;;;;5021198;28;20057;-40
2022/02/09 16:53:22;;;;;;;44.60;5.78;;;;;;;;;;5015497;28;20038;-39
2022/02/09 17:20:24;;;;;;;44.83;5.88;;;;;;;;;;5026148;28;20044;-40
2022/02/09 17:22:51;;;;;;;37.25;4.85;;;;;;;;;;5033289;28;20052;-39
2022/02/09 17:25:19;;;;;;;47.47;5.78;;;;;;;;;;5025858;28;20918;-41
2022/02/09 17:27:48;;;;;;;47.35;6.57;;;;;;;;;;5031766;28;20034;-40
2022/02/09 17:33:37;;;;;;;51.38;6.13;;;;;;;;;;4983232;28;20302;-40
2022/02/09 17:36:13;;;;;;;46.03;7.63;;;;;;;;;;5022450;28;20038;-39
2022/02/09 17:57:50;;;;;;;26.23;4.53;;;;;;;;;;5025617;28;20135;-40
2022/02/09 18:00:17;;;;;;;31.40;4.85;;;;;;;;;;5030511;28;20033;-40
2022/02/09 18:02:47;;;;;;;28.50;4.70;;;;;;;;;;5027579;28;20128;-39
2022/02/09 18:05:19;;;;;;;27.52;4.43;;;;;;;;;;5032081;28;20700;-40
2022/02/09 18:07:55;;;;;;;32.55;5.03;;;;;;;;;;5026511;28;20033;-40
2022/02/09 18:15:49;;;;;;;23.17;4.10;;;;;;;;;;5029483;28;20029;-39
2022/02/09 18:29:21;;;;;;;23.02;4.05;;;;;;;;;;5023443;28;20124;-39
2022/02/09 18:34:46;;;;;;;21.98;3.88;;;;;;;;;;5027173;28;20487;-39
2022/02/09 19:04:10;;;;;;;22.63;3.70;;;;;;;;;;5011791;28;20041;-38
2022/02/09 19:15:06;;;;;;;20.92;3.90;;;;;;;;;;4958869;28;20497;-38
2022/02/09 19:31:37;;;;;;;23.50;3.92;;;;;;;;;;5030831;28;20053;-38
2022/02/09 19:47:45;;;;;;;17.88;3.33;;;;;;;;;;5030567;28;20042;-38
2022/02/09 19:55:33;;;;;;;23.40;3.85;;;;;;;;;;5029783;28;20041;-38
2022/02/09 19:58:01;;;;;;;22.70;3.85;;;;;;;;;;5028241;28;20491;-39
2022/02/09 20:00:31;;;;;;;21.35;4.35;;;;;;;;;;5027459;28;20072;-38
2022/02/09 20:02:59;;;;;;;19.20;3.83;;;;;;;;;;5030311;28;20037;-38
2022/02/09 20:05:26;;;;;;;21.23;4.15;;;;;;;;;;5030278;28;20034;-38
2022/02/09 20:07:55;;;;;;;18.58;4.00;;;;;;;;;;5029315;28;20444;-38
2022/02/09 20:10:23;;;;;;;14.05;3.75;;;;;;;;;;5024555;28;20029;-38
2022/02/09 20:12:50;;;;;;;20.95;4.18;;;;;;;;;;5030115;28;20037;-38
2022/02/09 20:15:18;;;;;;;22.42;3.72;;;;;;;;;;5030169;28;20527;-37
2022/02/09 20:17:47;;;;;;;18.25;3.40;;;;;;;;;;5029994;28;20030;-38
2022/02/09 20:20:22;;;;;;;25.20;3.83;;;;;;;;;;5023820;28;20044;-38
2022/02/09 20:22:51;;;;;;;17.08;3.42;;;;;;;;;;5030217;28;20087;-38
2022/02/09 20:25:19;;;;;;;19.98;3.75;;;;;;;;;;5030560;28;20483;-38
2022/02/09 20:27:48;;;;;;;23.08;3.53;;;;;;;;;;5033976;28;20037;-38
2022/02/09 20:30:18;;;;;;;19.13;3.50;;;;;;;;;;5028929;28;20036;-38
2022/02/09 20:32:51;;;;;;;14.10;3.10;;;;;;;;;;5033022;28;20061;-38
2022/02/09 20:35:19;;;;;;;14.77;3.38;;;;;;;;;;5034034;28;20479;-38
2022/02/09 20:37:50;;;;;;;16.40;3.42;;;;;;;;;;5033754;28;20064;-38
2022/02/09 20:40:27;;;;;;;20.63;3.88;;;;;;;;;;5028184;28;20181;-38
2022/02/09 20:42:57;;;;;;;15.98;3.58;;;;;;;;;;5033534;28;20079;-38
2022/02/09 20:46:07;;;;;;;22.23;3.10;;;;;;;;;;5032220;28;20045;-38
2022/02/09 20:48:16;;;;;;;18.30;3.35;;;;;;;;;;5018379;28;20446;-37
2022/02/09 20:50:44;;;;;;;21.08;4.13;;;;;;;;;;5020593;28;20552;-37
2022/02/09 20:53:14;;;;;;;18.88;3.20;;;;;;;;;;5021786;28;20033;-38
2022/02/09 20:55:42;;;;;;;15.90;3.08;;;;;;;;;;5017943;28;20061;-37
2022/02/09 20:58:09;;;;;;;19.05;3.72;;;;;;;;;;5021896;28;20492;-38
2022/02/09 21:00:52;;;;;;;28.77;3.20;;;;;;;;;;5020173;28;20033;-38
2022/02/09 21:03:30;;;;;;;19.75;3.15;;;;;;;;;;5022417;28;20044;-38
2022/02/09 21:08:42;;;;;;;15.95;2.92;;;;;;;;;;5020547;28;20045;-39
2022/02/09 21:11:43;;;;;;;14.95;2.80;;;;;;;;;;5020226;28;20809;-38
2022/02/09 21:19:38;;;;;;;18.42;2.95;;;;;;;;;;5022168;28;20727;-38
2022/02/09 21:56:40;;;;;;;33.13;4.13;;;;;;;;;;5022584;28;20560;-41
2022/02/09 22:16:18;;;;;;;26.67;3.72;;;;;;;;;;5030621;28;20491;-41
2022/02/09 22:21:17;;;;;;;29.83;3.83;;;;;;;;;;5021210;28;20032;-41
2022/02/09 22:26:50;;;;;;;26.92;3.42;;;;;;;;;;5028159;28;20404;-41
2022/02/09 22:45:32;;;;;;;21.27;3.58;;;;;;;;;;5022272;28;20141;-42
2022/02/09 22:45:56;;;;;;;13.90;3.20;;;;;;;;;;5027109;28;19924;-43
2022/02/09 22:56:38;;;;;;;15.82;3.25;;;;;;;;;;5020305;28;20091;-44
2022/02/09 22:59:11;;;;;;;18.35;2.60;;;;;;;;;;5019898;28;20088;-44
2022/02/09 23:01:52;;;;;;;15.52;2.72;;;;;;;;;;5019870;28;20025;-42
2022/02/09 23:09:39;;;;;;;13.73;2.50;;;;;;;;;;5028804;28;20535;-41
2022/02/09 23:12:20;;;;;;;17.27;2.85;;;;;;;;;;5023226;28;20045;-43
2022/02/09 23:22:57;;;;;;;19.38;3.58;;;;;;;;;;5030505;28;20068;-42
2022/02/09 23:53:16;;;;;;;13.88;2.90;;;;;;;;;;5028704;28;20879;-44
